sensor_id;sensor_type;location;lat;lon;timestamp;P1;durP1;ratioP1;P2;durP2;ratioP2
78732;SDS011;68056;52.530;5.454;2023-04-29T00:00:46;14.93;;;6.90;;
78732;SDS011;68056;52.530;5.454;2023-04-29T00:03:12;13.00;;;6.35;;
78732;SDS011;68056;52.530;5.454;2023-04-29T00:05:37;13.05;;;6.53;;
78732;SDS011;68056;52.530;5.454;2023-04-29T00:08:03;16.10;;;7.57;;
78732;SDS011;68056;52.530;5.454;2023-04-29T00:10:29;10.88;;;5.60;;
78732;SDS011;68056;52.530;5.454;2023-04-29T00:12:54;14.60;;;6.70;;
78732;SDS011;68056;52.530;5.454;2023-04-29T00:15:20;10.55;;;6.03;;
78732;SDS011;68056;52.530;5.454;2023-04-29T00:17:46;12.88;;;7.47;;
78732;SDS011;68056;52.530;5.454;2023-04-29T00:20:12;10.30;;;6.05;;
78732;SDS011;68056;52.530;5.454;2023-04-29T00:22:37;14.30;;;7.07;;
78732;SDS011;68056;52.530;5.454;2023-04-29T00:25:04;12.98;;;6.47;;
78732;SDS011;68056;52.530;5.454;2023-04-29T00:27:30;12.43;;;7.30;;
78732;SDS011;68056;52.530;5.454;2023-04-29T00:29:57;12.80;;;6.80;;
78732;SDS011;68056;52.530;5.454;2023-04-29T00:32:22;9.88;;;6.07;;
78732;SDS011;68056;52.530;5.454;2023-04-29T00:34:48;10.82;;;6.28;;
78732;SDS011;68056;52.530;5.454;2023-04-29T00:37:13;12.13;;;6.82;;
78732;SDS011;68056;52.530;5.454;2023-04-29T00:39:40;13.82;;;6.90;;
78732;SDS011;68056;52.530;5.454;2023-04-29T00:42:06;14.05;;;7.15;;
78732;SDS011;68056;52.530;5.454;2023-04-29T00:44:32;13.27;;;6.93;;
78732;SDS011;68056;52.530;5.454;2023-04-29T00:46:57;9.93;;;5.50;;
78732;SDS011;68056;52.530;5.454;2023-04-29T00:49:24;10.98;;;6.55;;
78732;SDS011;68056;52.530;5.454;2023-04-29T00:51:51;11.10;;;5.90;;
78732;SDS011;68056;52.530;5.454;2023-04-29T00:54:17;10.85;;;6.28;;
78732;SDS011;68056;52.530;5.454;2023-04-29T00:56:44;9.45;;;5.70;;
78732;SDS011;68056;52.530;5.454;2023-04-29T00:59:11;9.55;;;5.07;;
78732;SDS011;68056;52.530;5.454;2023-04-29T01:01:37;12.05;;;6.53;;
78732;SDS011;68056;52.530;5.454;2023-04-29T01:04:03;8.23;;;5.07;;
78732;SDS011;68056;52.530;5.454;2023-04-29T01:14:46;14.05;;;6.65;;
78732;SDS011;68056;52.530;5.454;2023-04-29T01:17:18;14.55;;;7.72;;
78732;SDS011;68056;52.530;5.454;2023-04-29T01:19:49;14.00;;;8.45;;
78732;SDS011;68056;52.530;5.454;2023-04-29T01:22:20;15.43;;;8.07;;
78732;SDS011;68056;52.530;5.454;2023-04-29T01:24:46;15.90;;;8.23;;
78732;SDS011;68056;52.530;5.454;2023-04-29T01:27:16;17.52;;;9.15;;
78732;SDS011;68056;52.530;5.454;2023-04-29T01:30:09;13.63;;;8.23;;
78732;SDS011;68056;52.530;5.454;2023-04-29T01:32:49;13.10;;;7.57;;
78732;SDS011;68056;52.530;5.454;2023-04-29T01:40:36;15.85;;;8.43;;
78732;SDS011;68056;52.530;5.454;2023-04-29T01:43:07;16.02;;;8.38;;
78732;SDS011;68056;52.530;5.454;2023-04-29T01:45:36;17.75;;;9.52;;
78732;SDS011;68056;52.530;5.454;2023-04-29T01:48:05;15.70;;;8.30;;
78732;SDS011;68056;52.530;5.454;2023-04-29T01:50:31;14.48;;;8.55;;
78732;SDS011;68056;52.530;5.454;2023-04-29T01:52:57;15.50;;;8.43;;
78732;SDS011;68056;52.530;5.454;2023-04-29T01:55:22;11.85;;;7.90;;
78732;SDS011;68056;52.530;5.454;2023-04-29T01:57:48;13.40;;;7.50;;
78732;SDS011;68056;52.530;5.454;2023-04-29T02:00:14;17.73;;;8.23;;
78732;SDS011;68056;52.530;5.454;2023-04-29T02:02:39;13.48;;;8.55;;
78732;SDS011;68056;52.530;5.454;2023-04-29T02:05:05;18.08;;;8.90;;
78732;SDS011;68056;52.530;5.454;2023-04-29T02:07:31;15.30;;;8.02;;
78732;SDS011;68056;52.530;5.454;2023-04-29T02:09:57;16.17;;;7.90;;
78732;SDS011;68056;52.530;5.454;2023-04-29T02:12:22;14.02;;;8.88;;
78732;SDS011;68056;52.530;5.454;2023-04-29T02:14:50;14.52;;;8.35;;
78732;SDS011;68056;52.530;5.454;2023-04-29T02:17:17;17.20;;;8.68;;
78732;SDS011;68056;52.530;5.454;2023-04-29T02:19:42;17.15;;;10.55;;
78732;SDS011;68056;52.530;5.454;2023-04-29T02:22:08;16.88;;;8.82;;
78732;SDS011;68056;52.530;5.454;2023-04-29T02:24:36;18.20;;;9.63;;
78732;SDS011;68056;52.530;5.454;2023-04-29T02:27:02;18.38;;;9.93;;
78732;SDS011;68056;52.530;5.454;2023-04-29T02:29:29;13.65;;;8.30;;
78732;SDS011;68056;52.530;5.454;2023-04-29T02:31:55;14.38;;;9.13;;
78732;SDS011;68056;52.530;5.454;2023-04-29T02:34:21;14.90;;;8.65;;
78732;SDS011;68056;52.530;5.454;2023-04-29T02:36:48;14.95;;;8.90;;
78732;SDS011;68056;52.530;5.454;2023-04-29T02:39:13;17.08;;;9.95;;
78732;SDS011;68056;52.530;5.454;2023-04-29T02:41:39;18.27;;;9.32;;
78732;SDS011;68056;52.530;5.454;2023-04-29T02:44:06;13.68;;;8.30;;
78732;SDS011;68056;52.530;5.454;2023-04-29T02:46:31;15.68;;;7.97;;
78732;SDS011;68056;52.530;5.454;2023-04-29T02:48:59;15.77;;;7.95;;
78732;SDS011;68056;52.530;5.454;2023-04-29T02:51:25;16.05;;;7.78;;
78732;SDS011;68056;52.530;5.454;2023-04-29T02:53:52;22.02;;;9.48;;
78732;SDS011;68056;52.530;5.454;2023-04-29T02:56:17;13.13;;;7.05;;
78732;SDS011;68056;52.530;5.454;2023-04-29T02:58:43;12.30;;;6.75;;
78732;SDS011;68056;52.530;5.454;2023-04-29T03:01:09;9.95;;;5.95;;
78732;SDS011;68056;52.530;5.454;2023-04-29T03:03:34;14.52;;;8.05;;
78732;SDS011;68056;52.530;5.454;2023-04-29T03:06:00;16.23;;;8.13;;
78732;SDS011;68056;52.530;5.454;2023-04-29T03:08:25;12.98;;;7.55;;
78732;SDS011;68056;52.530;5.454;2023-04-29T03:10:52;11.88;;;7.15;;
78732;SDS011;68056;52.530;5.454;2023-04-29T03:13:17;12.40;;;7.00;;
78732;SDS011;68056;52.530;5.454;2023-04-29T03:15:43;14.45;;;7.20;;
78732;SDS011;68056;52.530;5.454;2023-04-29T03:18:09;13.20;;;8.02;;
78732;SDS011;68056;52.530;5.454;2023-04-29T03:20:34;13.50;;;7.03;;
78732;SDS011;68056;52.530;5.454;2023-04-29T03:23:00;16.60;;;6.90;;
78732;SDS011;68056;52.530;5.454;2023-04-29T03:25:26;11.85;;;7.38;;
78732;SDS011;68056;52.530;5.454;2023-04-29T03:27:52;14.55;;;7.60;;
78732;SDS011;68056;52.530;5.454;2023-04-29T03:30:18;11.55;;;6.93;;
78732;SDS011;68056;52.530;5.454;2023-04-29T03:32:44;11.05;;;6.43;;
78732;SDS011;68056;52.530;5.454;2023-04-29T03:35:09;11.93;;;7.15;;
78732;SDS011;68056;52.530;5.454;2023-04-29T03:37:38;11.73;;;7.30;;
78732;SDS011;68056;52.530;5.454;2023-04-29T03:40:04;11.00;;;7.65;;
78732;SDS011;68056;52.530;5.454;2023-04-29T03:42:30;10.25;;;5.90;;
78732;SDS011;68056;52.530;5.454;2023-04-29T03:44:55;10.60;;;6.30;;
78732;SDS011;68056;52.530;5.454;2023-04-29T03:47:21;11.80;;;7.28;;
78732;SDS011;68056;52.530;5.454;2023-04-29T03:49:47;10.57;;;6.57;;
78732;SDS011;68056;52.530;5.454;2023-04-29T03:52:13;18.58;;;7.35;;
78732;SDS011;68056;52.530;5.454;2023-04-29T03:54:39;12.93;;;7.65;;
78732;SDS011;68056;52.530;5.454;2023-04-29T03:57:05;11.90;;;7.53;;
78732;SDS011;68056;52.530;5.454;2023-04-29T03:59:31;13.70;;;7.70;;
78732;SDS011;68056;52.530;5.454;2023-04-29T04:01:56;14.82;;;8.25;;
78732;SDS011;68056;52.530;5.454;2023-04-29T04:04:22;10.52;;;6.28;;
78732;SDS011;68056;52.530;5.454;2023-04-29T04:06:48;14.63;;;8.20;;
78732;SDS011;68056;52.530;5.454;2023-04-29T04:09:16;14.55;;;7.47;;
78732;SDS011;68056;52.530;5.454;2023-04-29T04:11:42;16.52;;;7.93;;
78732;SDS011;68056;52.530;5.454;2023-04-29T04:14:08;12.48;;;7.72;;
78732;SDS011;68056;52.530;5.454;2023-04-29T04:16:34;11.85;;;6.20;;
78732;SDS011;68056;52.530;5.454;2023-04-29T04:18:59;13.73;;;7.63;;
78732;SDS011;68056;52.530;5.454;2023-04-29T04:21:25;14.50;;;7.78;;
78732;SDS011;68056;52.530;5.454;2023-04-29T04:23:51;15.57;;;8.40;;
78732;SDS011;68056;52.530;5.454;2023-04-29T04:26:17;13.02;;;7.55;;
78732;SDS011;68056;52.530;5.454;2023-04-29T04:28:44;15.50;;;7.03;;
78732;SDS011;68056;52.530;5.454;2023-04-29T04:31:10;14.23;;;7.07;;
78732;SDS011;68056;52.530;5.454;2023-04-29T04:33:38;13.45;;;6.68;;
78732;SDS011;68056;52.530;5.454;2023-04-29T04:36:07;13.75;;;7.10;;
78732;SDS011;68056;52.530;5.454;2023-04-29T04:38:33;11.70;;;5.80;;
78732;SDS011;68056;52.530;5.454;2023-04-29T04:40:58;14.02;;;6.50;;
78732;SDS011;68056;52.530;5.454;2023-04-29T04:43:24;13.52;;;7.13;;
78732;SDS011;68056;52.530;5.454;2023-04-29T04:45:50;9.40;;;6.00;;
78732;SDS011;68056;52.530;5.454;2023-04-29T04:48:15;10.65;;;6.45;;
78732;SDS011;68056;52.530;5.454;2023-04-29T04:50:41;11.32;;;6.10;;
78732;SDS011;68056;52.530;5.454;2023-04-29T04:53:07;10.65;;;5.75;;
78732;SDS011;68056;52.530;5.454;2023-04-29T04:55:32;13.02;;;6.63;;
78732;SDS011;68056;52.530;5.454;2023-04-29T04:57:58;16.17;;;7.45;;
78732;SDS011;68056;52.530;5.454;2023-04-29T05:00:24;15.70;;;8.10;;
78732;SDS011;68056;52.530;5.454;2023-04-29T05:02:52;14.50;;;7.25;;
78732;SDS011;68056;52.530;5.454;2023-04-29T05:05:18;14.30;;;6.80;;
78732;SDS011;68056;52.530;5.454;2023-04-29T05:07:43;15.05;;;7.30;;
78732;SDS011;68056;52.530;5.454;2023-04-29T05:10:12;11.73;;;5.82;;
78732;SDS011;68056;52.530;5.454;2023-04-29T05:12:38;13.40;;;6.35;;
78732;SDS011;68056;52.530;5.454;2023-04-29T05:15:03;12.77;;;6.60;;
78732;SDS011;68056;52.530;5.454;2023-04-29T05:17:29;14.45;;;6.50;;
78732;SDS011;68056;52.530;5.454;2023-04-29T05:19:55;12.32;;;5.75;;
78732;SDS011;68056;52.530;5.454;2023-04-29T05:22:21;13.52;;;5.88;;
78732;SDS011;68056;52.530;5.454;2023-04-29T05:24:47;12.00;;;6.10;;
78732;SDS011;68056;52.530;5.454;2023-04-29T05:27:13;11.52;;;5.90;;
78732;SDS011;68056;52.530;5.454;2023-04-29T05:29:39;11.40;;;5.28;;
78732;SDS011;68056;52.530;5.454;2023-04-29T05:32:04;11.65;;;5.45;;
78732;SDS011;68056;52.530;5.454;2023-04-29T05:34:30;11.23;;;5.72;;
78732;SDS011;68056;52.530;5.454;2023-04-29T05:36:57;13.43;;;5.88;;
78732;SDS011;68056;52.530;5.454;2023-04-29T05:39:23;10.48;;;5.68;;
78732;SDS011;68056;52.530;5.454;2023-04-29T05:41:48;10.88;;;5.93;;
78732;SDS011;68056;52.530;5.454;2023-04-29T05:44:14;10.02;;;5.15;;
78732;SDS011;68056;52.530;5.454;2023-04-29T05:46:39;9.30;;;5.45;;
78732;SDS011;68056;52.530;5.454;2023-04-29T05:49:05;12.88;;;4.80;;
78732;SDS011;68056;52.530;5.454;2023-04-29T05:51:31;11.07;;;5.47;;
78732;SDS011;68056;52.530;5.454;2023-04-29T05:53:56;9.57;;;4.53;;
78732;SDS011;68056;52.530;5.454;2023-04-29T05:56:24;6.65;;;4.35;;
78732;SDS011;68056;52.530;5.454;2023-04-29T05:58:49;8.82;;;4.88;;
78732;SDS011;68056;52.530;5.454;2023-04-29T06:01:15;12.40;;;5.25;;
78732;SDS011;68056;52.530;5.454;2023-04-29T06:03:41;10.15;;;4.95;;
78732;SDS011;68056;52.530;5.454;2023-04-29T06:06:07;7.30;;;4.38;;
78732;SDS011;68056;52.530;5.454;2023-04-29T06:08:33;10.45;;;5.22;;
78732;SDS011;68056;52.530;5.454;2023-04-29T06:10:58;8.73;;;4.65;;
78732;SDS011;68056;52.530;5.454;2023-04-29T06:13:24;9.30;;;4.72;;
78732;SDS011;68056;52.530;5.454;2023-04-29T06:15:50;8.77;;;4.07;;
78732;SDS011;68056;52.530;5.454;2023-04-29T06:18:16;8.80;;;5.28;;
78732;SDS011;68056;52.530;5.454;2023-04-29T06:20:41;7.97;;;4.32;;
78732;SDS011;68056;52.530;5.454;2023-04-29T06:23:07;8.60;;;4.88;;
78732;SDS011;68056;52.530;5.454;2023-04-29T06:25:32;10.00;;;4.70;;
78732;SDS011;68056;52.530;5.454;2023-04-29T06:27:58;8.63;;;4.70;;
78732;SDS011;68056;52.530;5.454;2023-04-29T06:30:23;7.63;;;4.53;;
78732;SDS011;68056;52.530;5.454;2023-04-29T06:32:50;7.60;;;4.88;;
78732;SDS011;68056;52.530;5.454;2023-04-29T06:35:16;9.88;;;4.93;;
78732;SDS011;68056;52.530;5.454;2023-04-29T06:37:41;7.28;;;4.40;;
78732;SDS011;68056;52.530;5.454;2023-04-29T06:40:07;9.10;;;4.75;;
78732;SDS011;68056;52.530;5.454;2023-04-29T06:42:33;9.85;;;4.55;;
78732;SDS011;68056;52.530;5.454;2023-04-29T06:44:58;5.68;;;3.50;;
78732;SDS011;68056;52.530;5.454;2023-04-29T06:47:24;9.05;;;4.45;;
78732;SDS011;68056;52.530;5.454;2023-04-29T06:49:50;8.05;;;4.55;;
78732;SDS011;68056;52.530;5.454;2023-04-29T06:52:18;6.82;;;4.53;;
78732;SDS011;68056;52.530;5.454;2023-04-29T06:54:44;11.77;;;4.97;;
78732;SDS011;68056;52.530;5.454;2023-04-29T06:57:09;10.00;;;4.95;;
78732;SDS011;68056;52.530;5.454;2023-04-29T06:59:35;5.63;;;3.38;;
78732;SDS011;68056;52.530;5.454;2023-04-29T07:02:00;8.07;;;4.97;;
78732;SDS011;68056;52.530;5.454;2023-04-29T07:04:26;8.00;;;4.40;;
78732;SDS011;68056;52.530;5.454;2023-04-29T07:06:51;7.85;;;3.85;;
78732;SDS011;68056;52.530;5.454;2023-04-29T07:09:18;7.25;;;3.83;;
78732;SDS011;68056;52.530;5.454;2023-04-29T07:11:43;8.60;;;4.45;;
78732;SDS011;68056;52.530;5.454;2023-04-29T07:14:09;7.82;;;4.47;;
78732;SDS011;68056;52.530;5.454;2023-04-29T07:16:35;7.63;;;4.13;;
78732;SDS011;68056;52.530;5.454;2023-04-29T07:19:06;8.70;;;4.15;;
78732;SDS011;68056;52.530;5.454;2023-04-29T07:21:32;8.10;;;4.40;;
78732;SDS011;68056;52.530;5.454;2023-04-29T07:23:57;9.45;;;5.13;;
78732;SDS011;68056;52.530;5.454;2023-04-29T07:26:42;8.00;;;4.57;;
78732;SDS011;68056;52.530;5.454;2023-04-29T07:29:08;10.07;;;4.40;;
78732;SDS011;68056;52.530;5.454;2023-04-29T07:31:34;7.30;;;4.22;;
78732;SDS011;68056;52.530;5.454;2023-04-29T07:34:00;7.97;;;3.72;;
78732;SDS011;68056;52.530;5.454;2023-04-29T07:36:25;7.95;;;4.00;;
78732;SDS011;68056;52.530;5.454;2023-04-29T07:38:52;6.38;;;4.18;;
78732;SDS011;68056;52.530;5.454;2023-04-29T07:41:21;7.13;;;3.70;;
78732;SDS011;68056;52.530;5.454;2023-04-29T07:43:46;7.68;;;3.90;;
78732;SDS011;68056;52.530;5.454;2023-04-29T07:46:12;8.00;;;3.80;;
78732;SDS011;68056;52.530;5.454;2023-04-29T07:48:38;7.57;;;3.55;;
78732;SDS011;68056;52.530;5.454;2023-04-29T07:51:04;7.28;;;4.35;;
78732;SDS011;68056;52.530;5.454;2023-04-29T07:53:30;7.78;;;2.85;;
78732;SDS011;68056;52.530;5.454;2023-04-29T07:55:56;5.82;;;3.65;;
78732;SDS011;68056;52.530;5.454;2023-04-29T07:58:23;6.07;;;4.00;;
78732;SDS011;68056;52.530;5.454;2023-04-29T08:00:49;7.15;;;3.67;;
78732;SDS011;68056;52.530;5.454;2023-04-29T08:03:14;8.70;;;4.60;;
78732;SDS011;68056;52.530;5.454;2023-04-29T08:05:40;6.20;;;3.50;;
78732;SDS011;68056;52.530;5.454;2023-04-29T08:08:08;5.47;;;3.42;;
78732;SDS011;68056;52.530;5.454;2023-04-29T08:10:36;5.68;;;3.38;;
78732;SDS011;68056;52.530;5.454;2023-04-29T08:13:04;7.82;;;3.72;;
78732;SDS011;68056;52.530;5.454;2023-04-29T08:15:30;4.40;;;3.03;;
78732;SDS011;68056;52.530;5.454;2023-04-29T08:17:56;4.75;;;2.97;;
78732;SDS011;68056;52.530;5.454;2023-04-29T08:20:21;6.25;;;3.60;;
78732;SDS011;68056;52.530;5.454;2023-04-29T08:22:47;7.13;;;3.92;;
78732;SDS011;68056;52.530;5.454;2023-04-29T08:25:12;5.13;;;3.85;;
78732;SDS011;68056;52.530;5.454;2023-04-29T08:27:38;5.82;;;3.38;;
78732;SDS011;68056;52.530;5.454;2023-04-29T08:30:04;5.45;;;3.63;;
78732;SDS011;68056;52.530;5.454;2023-04-29T08:32:30;7.18;;;3.42;;
78732;SDS011;68056;52.530;5.454;2023-04-29T08:34:56;6.75;;;3.50;;
78732;SDS011;68056;52.530;5.454;2023-04-29T08:37:21;6.65;;;3.65;;
78732;SDS011;68056;52.530;5.454;2023-04-29T08:39:47;5.97;;;3.55;;
78732;SDS011;68056;52.530;5.454;2023-04-29T08:42:12;8.85;;;3.58;;
78732;SDS011;68056;52.530;5.454;2023-04-29T08:44:41;12.57;;;4.07;;
78732;SDS011;68056;52.530;5.454;2023-04-29T08:47:07;8.18;;;3.90;;
78732;SDS011;68056;52.530;5.454;2023-04-29T08:49:33;8.02;;;4.00;;
78732;SDS011;68056;52.530;5.454;2023-04-29T08:52:02;5.95;;;3.10;;
78732;SDS011;68056;52.530;5.454;2023-04-29T08:54:28;4.90;;;2.90;;
78732;SDS011;68056;52.530;5.454;2023-04-29T08:56:53;3.90;;;2.78;;
78732;SDS011;68056;52.530;5.454;2023-04-29T08:59:22;4.53;;;3.20;;
78732;SDS011;68056;52.530;5.454;2023-04-29T09:01:48;6.63;;;3.05;;
78732;SDS011;68056;52.530;5.454;2023-04-29T09:04:26;6.57;;;3.58;;
78732;SDS011;68056;52.530;5.454;2023-04-29T09:07:01;5.78;;;3.35;;
78732;SDS011;68056;52.530;5.454;2023-04-29T09:09:28;7.10;;;3.38;;
78732;SDS011;68056;52.530;5.454;2023-04-29T09:11:55;4.60;;;3.40;;
78732;SDS011;68056;52.530;5.454;2023-04-29T09:14:21;4.22;;;3.28;;
78732;SDS011;68056;52.530;5.454;2023-04-29T09:16:48;8.23;;;3.72;;
78732;SDS011;68056;52.530;5.454;2023-04-29T09:21:56;4.20;;;3.30;;
78732;SDS011;68056;52.530;5.454;2023-04-29T09:24:25;7.20;;;3.55;;
78732;SDS011;68056;52.530;5.454;2023-04-29T09:26:52;6.03;;;3.30;;
78732;SDS011;68056;52.530;5.454;2023-04-29T09:29:18;9.00;;;3.15;;
78732;SDS011;68056;52.530;5.454;2023-04-29T09:31:44;6.63;;;3.08;;
78732;SDS011;68056;52.530;5.454;2023-04-29T09:34:10;5.80;;;3.33;;
78732;SDS011;68056;52.530;5.454;2023-04-29T09:36:47;5.45;;;2.80;;
78732;SDS011;68056;52.530;5.454;2023-04-29T09:39:15;5.70;;;3.42;;
78732;SDS011;68056;52.530;5.454;2023-04-29T09:44:16;5.85;;;3.55;;
78732;SDS011;68056;52.530;5.454;2023-04-29T09:46:42;5.70;;;3.75;;
78732;SDS011;68056;52.530;5.454;2023-04-29T09:49:21;6.22;;;3.22;;
78732;SDS011;68056;52.530;5.454;2023-04-29T09:51:52;8.40;;;4.35;;
78732;SDS011;68056;52.530;5.454;2023-04-29T09:54:19;8.00;;;3.25;;
78732;SDS011;68056;52.530;5.454;2023-04-29T09:56:50;5.63;;;3.28;;
78732;SDS011;68056;52.530;5.454;2023-04-29T09:59:17;7.95;;;3.67;;
78732;SDS011;68056;52.530;5.454;2023-04-29T10:01:43;6.50;;;3.30;;
78732;SDS011;68056;52.530;5.454;2023-04-29T10:04:15;6.63;;;3.50;;
78732;SDS011;68056;52.530;5.454;2023-04-29T10:06:42;5.93;;;3.47;;
78732;SDS011;68056;52.530;5.454;2023-04-29T10:09:09;5.25;;;3.50;;
78732;SDS011;68056;52.530;5.454;2023-04-29T10:11:40;6.63;;;3.67;;
78732;SDS011;68056;52.530;5.454;2023-04-29T10:14:19;5.88;;;3.90;;
78732;SDS011;68056;52.530;5.454;2023-04-29T10:16:47;5.50;;;3.58;;
78732;SDS011;68056;52.530;5.454;2023-04-29T10:19:37;6.35;;;4.03;;
78732;SDS011;68056;52.530;5.454;2023-04-29T10:22:05;5.53;;;3.92;;
78732;SDS011;68056;52.530;5.454;2023-04-29T10:24:36;7.50;;;4.07;;
78732;SDS011;68056;52.530;5.454;2023-04-29T10:27:07;7.35;;;4.30;;
78732;SDS011;68056;52.530;5.454;2023-04-29T10:29:36;7.25;;;3.88;;
78732;SDS011;68056;52.530;5.454;2023-04-29T10:32:06;8.25;;;4.70;;
78732;SDS011;68056;52.530;5.454;2023-04-29T10:34:33;6.55;;;3.80;;
78732;SDS011;68056;52.530;5.454;2023-04-29T10:37:02;7.88;;;4.55;;
78732;SDS011;68056;52.530;5.454;2023-04-29T10:39:31;7.05;;;4.15;;
78732;SDS011;68056;52.530;5.454;2023-04-29T10:42:13;7.70;;;4.88;;
78732;SDS011;68056;52.530;5.454;2023-04-29T10:45:15;6.32;;;4.00;;
78732;SDS011;68056;52.530;5.454;2023-04-29T10:47:57;6.22;;;4.25;;
78732;SDS011;68056;52.530;5.454;2023-04-29T10:50:33;7.28;;;4.40;;
78732;SDS011;68056;52.530;5.454;2023-04-29T10:53:06;5.65;;;4.25;;
78732;SDS011;68056;52.530;5.454;2023-04-29T10:55:34;6.40;;;4.50;;
78732;SDS011;68056;52.530;5.454;2023-04-29T10:58:04;8.40;;;4.53;;
78732;SDS011;68056;52.530;5.454;2023-04-29T11:00:31;6.75;;;4.45;;
78732;SDS011;68056;52.530;5.454;2023-04-29T11:02:59;6.93;;;4.30;;
78732;SDS011;68056;52.530;5.454;2023-04-29T11:05:33;5.50;;;4.03;;
78732;SDS011;68056;52.530;5.454;2023-04-29T11:08:12;5.80;;;4.05;;
78732;SDS011;68056;52.530;5.454;2023-04-29T11:10:47;5.60;;;3.58;;
78732;SDS011;68056;52.530;5.454;2023-04-29T11:13:22;4.30;;;3.13;;
78732;SDS011;68056;52.530;5.454;2023-04-29T11:15:50;7.15;;;3.58;;
78732;SDS011;68056;52.530;5.454;2023-04-29T11:18:29;5.20;;;3.38;;
78732;SDS011;68056;52.530;5.454;2023-04-29T11:23:32;6.15;;;4.18;;
78732;SDS011;68056;52.530;5.454;2023-04-29T11:28:26;6.82;;;3.92;;
78732;SDS011;68056;52.530;5.454;2023-04-29T11:33:21;4.97;;;2.90;;
78732;SDS011;68056;52.530;5.454;2023-04-29T11:35:46;5.63;;;3.63;;
78732;SDS011;68056;52.530;5.454;2023-04-29T11:38:12;5.82;;;3.90;;
78732;SDS011;68056;52.530;5.454;2023-04-29T11:40:41;5.90;;;3.78;;
78732;SDS011;68056;52.530;5.454;2023-04-29T11:43:16;6.97;;;3.50;;
78732;SDS011;68056;52.530;5.454;2023-04-29T11:45:46;6.43;;;3.22;;
78732;SDS011;68056;52.530;5.454;2023-04-29T11:48:21;4.05;;;3.00;;
78732;SDS011;68056;52.530;5.454;2023-04-29T11:50:52;7.07;;;3.55;;
78732;SDS011;68056;52.530;5.454;2023-04-29T11:53:23;5.22;;;3.30;;
78732;SDS011;68056;52.530;5.454;2023-04-29T11:55:51;5.15;;;3.22;;
78732;SDS011;68056;52.530;5.454;2023-04-29T11:58:19;5.25;;;3.30;;
78732;SDS011;68056;52.530;5.454;2023-04-29T12:00:48;5.20;;;3.33;;
78732;SDS011;68056;52.530;5.454;2023-04-29T12:03:16;8.35;;;3.83;;
78732;SDS011;68056;52.530;5.454;2023-04-29T12:05:53;5.15;;;3.13;;
78732;SDS011;68056;52.530;5.454;2023-04-29T12:10:46;5.75;;;3.38;;
78732;SDS011;68056;52.530;5.454;2023-04-29T12:13:16;7.18;;;3.00;;
78732;SDS011;68056;52.530;5.454;2023-04-29T12:18:08;5.53;;;3.03;;
78732;SDS011;68056;52.530;5.454;2023-04-29T12:20:34;5.45;;;3.08;;
78732;SDS011;68056;52.530;5.454;2023-04-29T12:23:10;6.32;;;3.40;;
78732;SDS011;68056;52.530;5.454;2023-04-29T12:25:37;5.82;;;3.28;;
78732;SDS011;68056;52.530;5.454;2023-04-29T12:28:03;5.03;;;3.03;;
78732;SDS011;68056;52.530;5.454;2023-04-29T12:30:29;3.38;;;2.78;;
78732;SDS011;68056;52.530;5.454;2023-04-29T12:32:58;5.35;;;2.88;;
78732;SDS011;68056;52.530;5.454;2023-04-29T12:35:23;4.15;;;2.70;;
78732;SDS011;68056;52.530;5.454;2023-04-29T12:37:49;3.80;;;2.20;;
78732;SDS011;68056;52.530;5.454;2023-04-29T12:40:15;3.90;;;2.33;;
78732;SDS011;68056;52.530;5.454;2023-04-29T12:42:41;4.32;;;1.88;;
78732;SDS011;68056;52.530;5.454;2023-04-29T12:45:23;4.30;;;2.10;;
78732;SDS011;68056;52.530;5.454;2023-04-29T12:47:59;4.00;;;2.38;;
78732;SDS011;68056;52.530;5.454;2023-04-29T12:52:55;5.95;;;2.17;;
78732;SDS011;68056;52.530;5.454;2023-04-29T12:55:21;6.55;;;2.47;;
78732;SDS011;68056;52.530;5.454;2023-04-29T12:57:46;2.17;;;1.80;;
78732;SDS011;68056;52.530;5.454;2023-04-29T13:00:12;2.40;;;1.75;;
78732;SDS011;68056;52.530;5.454;2023-04-29T13:02:39;7.85;;;2.17;;
78732;SDS011;68056;52.530;5.454;2023-04-29T13:05:04;3.00;;;1.77;;
78732;SDS011;68056;52.530;5.454;2023-04-29T13:07:30;5.38;;;2.00;;
78732;SDS011;68056;52.530;5.454;2023-04-29T13:09:56;3.38;;;1.75;;
78732;SDS011;68056;52.530;5.454;2023-04-29T13:12:21;3.85;;;1.67;;
78732;SDS011;68056;52.530;5.454;2023-04-29T13:14:47;3.63;;;1.67;;
78732;SDS011;68056;52.530;5.454;2023-04-29T13:17:12;3.20;;;1.85;;
78732;SDS011;68056;52.530;5.454;2023-04-29T13:19:38;2.60;;;1.70;;
78732;SDS011;68056;52.530;5.454;2023-04-29T13:22:04;2.72;;;1.88;;
78732;SDS011;68056;52.530;5.454;2023-04-29T13:24:30;4.30;;;2.00;;
78732;SDS011;68056;52.530;5.454;2023-04-29T13:26:57;4.20;;;1.60;;
78732;SDS011;68056;52.530;5.454;2023-04-29T13:29:22;2.70;;;1.35;;
78732;SDS011;68056;52.530;5.454;2023-04-29T13:31:48;3.67;;;1.50;;
78732;SDS011;68056;52.530;5.454;2023-04-29T13:34:13;3.88;;;1.50;;
78732;SDS011;68056;52.530;5.454;2023-04-29T13:36:39;4.13;;;1.88;;
78732;SDS011;68056;52.530;5.454;2023-04-29T13:39:04;3.55;;;2.17;;
78732;SDS011;68056;52.530;5.454;2023-04-29T13:41:30;3.15;;;1.83;;
78732;SDS011;68056;52.530;5.454;2023-04-29T13:43:56;3.55;;;1.83;;
78732;SDS011;68056;52.530;5.454;2023-04-29T13:46:22;3.45;;;1.88;;
78732;SDS011;68056;52.530;5.454;2023-04-29T13:48:47;5.15;;;1.75;;
78732;SDS011;68056;52.530;5.454;2023-04-29T13:51:13;3.72;;;1.50;;
78732;SDS011;68056;52.530;5.454;2023-04-29T13:53:38;3.92;;;2.00;;
78732;SDS011;68056;52.530;5.454;2023-04-29T13:56:04;2.92;;;1.77;;
78732;SDS011;68056;52.530;5.454;2023-04-29T13:58:30;4.55;;;2.33;;
78732;SDS011;68056;52.530;5.454;2023-04-29T14:00:55;3.40;;;1.60;;
78732;SDS011;68056;52.530;5.454;2023-04-29T14:03:21;3.63;;;1.60;;
78732;SDS011;68056;52.530;5.454;2023-04-29T14:05:46;4.60;;;1.98;;
78732;SDS011;68056;52.530;5.454;2023-04-29T14:08:12;2.40;;;1.58;;
78732;SDS011;68056;52.530;5.454;2023-04-29T14:10:38;3.50;;;1.77;;
78732;SDS011;68056;52.530;5.454;2023-04-29T14:13:03;3.53;;;1.65;;
78732;SDS011;68056;52.530;5.454;2023-04-29T14:15:29;3.38;;;1.67;;
78732;SDS011;68056;52.530;5.454;2023-04-29T14:17:55;3.45;;;1.60;;
78732;SDS011;68056;52.530;5.454;2023-04-29T14:20:20;2.17;;;1.75;;
78732;SDS011;68056;52.530;5.454;2023-04-29T14:22:47;3.05;;;1.50;;
78732;SDS011;68056;52.530;5.454;2023-04-29T14:25:13;3.42;;;1.50;;
78732;SDS011;68056;52.530;5.454;2023-04-29T14:27:39;3.05;;;1.67;;
78732;SDS011;68056;52.530;5.454;2023-04-29T14:30:05;2.28;;;1.52;;
78732;SDS011;68056;52.530;5.454;2023-04-29T14:32:31;2.03;;;1.45;;
78732;SDS011;68056;52.530;5.454;2023-04-29T14:34:56;1.95;;;1.17;;
78732;SDS011;68056;52.530;5.454;2023-04-29T14:37:22;2.90;;;1.10;;
78732;SDS011;68056;52.530;5.454;2023-04-29T14:39:48;1.73;;;1.00;;
78732;SDS011;68056;52.530;5.454;2023-04-29T14:42:13;1.42;;;1.02;;
78732;SDS011;68056;52.530;5.454;2023-04-29T14:44:39;1.95;;;1.10;;
78732;SDS011;68056;52.530;5.454;2023-04-29T14:47:05;1.63;;;0.90;;
78732;SDS011;68056;52.530;5.454;2023-04-29T14:49:30;2.00;;;1.00;;
78732;SDS011;68056;52.530;5.454;2023-04-29T14:51:56;1.83;;;1.05;;
78732;SDS011;68056;52.530;5.454;2023-04-29T14:54:21;1.23;;;0.63;;
78732;SDS011;68056;52.530;5.454;2023-04-29T14:56:48;1.90;;;1.00;;
78732;SDS011;68056;52.530;5.454;2023-04-29T14:59:14;2.45;;;1.20;;
78732;SDS011;68056;52.530;5.454;2023-04-29T15:01:40;1.55;;;0.88;;
78732;SDS011;68056;52.530;5.454;2023-04-29T15:04:06;1.73;;;0.75;;
78732;SDS011;68056;52.530;5.454;2023-04-29T15:06:31;2.47;;;1.17;;
78732;SDS011;68056;52.530;5.454;2023-04-29T15:08:57;2.50;;;0.98;;
78732;SDS011;68056;52.530;5.454;2023-04-29T15:11:23;2.15;;;0.85;;
78732;SDS011;68056;52.530;5.454;2023-04-29T15:13:50;1.50;;;1.02;;
78732;SDS011;68056;52.530;5.454;2023-04-29T15:16:15;3.00;;;0.98;;